KLLQ

Monticello Municipal / Ellis Field Airport

Monticello, Arkansas, USA
METAR KLLQ 230953Z AUTO 00000KT 10SM OVC004 12/11 A3020 RMK AO2 SLP227 T01220111
Observed Flight Rules
Feb-23 @ 09:53 UTC (38 minutes ago) Instrument Flight Rules
Wind Visibility Clouds
Calm 10 miles
  • Overcast at 400' AGL
Temperatures Readings
Current 12°C / 54°F
Dewpoint 11°C / 52°F
Humidity 94%
Altimeter 30.2" Hg
Pressure 1022.7 hPa
Elevation 83
METAR KLLQ 230953Z AUTO 00000KT 10SM OVC004 12/11 A3020 RMK AO2 SLP227 T01220111
Observed Flight Rules
Feb-23 @ 09:53 UTC
(38 minutes ago)
LIFR
Wind Visibility
Calm 10 miles
Clouds
  • Overcast at 400' AGL
Temperature Dewpoint
12°C / 54°F 11°C / 52°F
Humidity Altimeter Pressure
94% 30.2" Hg 1022.7 hPa